Terminal Aerodrome Forecast
Issued by NWS

Home | Current Version | Previous Version | Graphics & Text | Print | Product List | Glossary On
Versions: 1 2 3 4 5 6 7 8 9 10 11 12 13 14
000
FTUS43 KIWX 010500
TAFSBN
TAF
KSBN 010520Z 0106/0206 23003KT P6SM SCT100
     FM011200 25005KT P6SM BKN070
     FM011500 27006KT P6SM VCSH BKN050
     FM012300 30003KT P6SM BKN050=

USA.gov is the U.S. government's official web portal to all federal, state and local government web resources and services.